Time;durP1;ratioP1;P1;durP2;ratioP2;P2;SDS_P1;SDS_P2;PMS_P1;PMS_P2;Temp;Humidity;BMP_temperature;BMP_pressure;BME280_temperature;BME280_humidity;BME280_pressure;Samples;Min_cycle;Max_cycle;Signal;HPM_P1;HPM_P2
2022/01/26 00:05:53;;;;;;;;;72.00;56.00;;;;;-5.24;83.95;101764.97;5135922;27;8903;-71
2022/01/26 00:08:48;;;;;;;;;70.75;58.75;;;;;-5.20;84.37;101766.25;5122230;27;8859;-71
2022/01/26 00:11:44;;;;;;;;;69.50;56.00;;;;;-5.32;84.81;101774.06;5122155;27;8867;-71
2022/01/26 00:14:42;;;;;;;;;68.75;57.50;;;;;-5.29;84.38;101757.50;5132346;27;8824;-71
2022/01/26 00:17:38;;;;;;;;;80.25;62.00;;;;;-5.29;84.50;101770.13;5156315;27;9568;-71
2022/01/26 00:20:47;;;;;;;;;74.00;57.75;;;;;-5.40;84.33;101780.47;5142583;27;8825;-70
2022/01/26 00:29:49;;;;;;;;;63.75;53.25;;;;;-5.47;84.87;101784.16;5156320;27;8825;-72
2022/01/26 00:38:49;;;;;;;;;69.75;56.00;;;;;-5.49;85.26;101783.53;5124169;27;8860;-70
2022/01/26 00:41:30;;;;;;;;;68.50;58.75;;;;;-5.37;85.36;101780.09;5143547;27;8827;-71
2022/01/26 00:44:38;;;;;;;;;72.50;59.50;;;;;-5.46;86.05;101785.81;5147979;27;9591;-70
2022/01/26 00:47:34;;;;;;;;;20.00;17.75;;;;;-5.42;85.39;101770.91;5135155;27;8820;-71
2022/01/26 00:50:31;;;;;;;;;65.00;50.00;;;;;-5.41;85.19;101759.09;5121388;27;8834;-71
2022/01/26 00:53:33;;;;;;;;;60.75;51.50;;;;;-5.51;85.00;101761.31;5135057;27;8807;-71
2022/01/26 00:56:30;;;;;;;;;64.50;52.25;;;;;-5.60;85.33;101761.50;5135023;27;8878;-76
2022/01/26 00:59:25;;;;;;;;;69.50;50.00;;;;;-5.53;84.91;101757.97;5134767;27;8827;-71
2022/01/26 01:02:21;;;;;;;;;68.75;56.00;;;;;-5.65;85.00;101755.84;5146390;27;8833;-71
2022/01/26 01:04:50;;;;;;;;;61.00;53.50;;;;;-5.72;85.75;101759.53;5144849;27;8843;-71
2022/01/26 01:07:48;;;;;;;;;67.25;56.50;;;;;-5.58;85.57;101755.91;5134591;27;8816;-72
2022/01/26 01:10:46;;;;;;;;;46.75;43.00;;;;;-5.70;84.91;101747.50;5134626;27;8961;-71
2022/01/26 01:13:18;;;;;;;;;62.75;51.00;;;;;-5.71;84.89;101762.03;5135726;27;8839;-71
2022/01/26 01:15:49;;;;;;;;;55.75;49.25;;;;;-5.67;85.52;101759.78;5156620;27;8824;-71
2022/01/26 01:22:16;;;;;;;;;62.50;51.00;;;;;-5.58;85.15;101755.91;5155750;27;8859;-71
2022/01/26 01:26:04;;;;;;;;;59.50;48.00;;;;;-5.53;85.56;101748.03;5154223;27;8845;-72
2022/01/26 01:31:29;;;;;;;;;60.75;49.50;;;;;-5.83;84.79;101741.19;5155080;27;8940;-71
2022/01/26 01:34:29;;;;;;;;;75.25;54.75;;;;;-5.75;85.03;101735.66;5132737;27;8819;-71
2022/01/26 01:37:02;;;;;;;;;59.25;51.50;;;;;-5.67;85.04;101736.34;5135279;27;8869;-72
2022/01/26 01:39:58;;;;;;;;;47.50;44.50;;;;;-5.77;85.13;101738.56;5120612;27;8927;-71
2022/01/26 01:42:53;;;;;;;;;53.00;48.25;;;;;-5.63;85.84;101731.38;5120349;27;8826;-71
2022/01/26 01:45:52;;;;;;;;;49.75;42.50;;;;;-5.66;85.17;101731.81;5135076;27;8843;-71
2022/01/26 01:48:48;;;;;;;;;56.25;47.50;;;;;-5.65;85.76;101722.69;5133695;27;8846;-71
2022/01/26 01:51:51;;;;;;;;;70.00;56.50;;;;;-5.65;85.30;101725.38;5142809;27;8813;-71
2022/01/26 01:54:51;;;;;;;;;51.25;44.50;;;;;-5.66;85.37;101729.94;5153917;27;9554;-71
2022/01/26 01:57:47;;;;;;;;;49.50;44.00;;;;;-5.50;85.13;101720.69;5154413;27;9571;-71
2022/01/26 02:00:43;;;;;;;;;44.00;42.25;;;;;-5.49;84.81;101718.81;5154584;27;8829;-71
2022/01/26 02:03:39;;;;;;;;;53.00;44.50;;;;;-5.60;85.43;101715.66;5152473;27;8872;-71
2022/01/26 02:06:35;;;;;;;;;59.00;49.50;;;;;-5.65;85.60;101709.19;5120287;27;9569;-71
2022/01/26 02:09:30;;;;;;;;;39.50;38.25;;;;;-5.52;85.83;101720.06;5134457;27;8843;-71
2022/01/26 02:12:27;;;;;;;;;51.75;41.00;;;;;-5.49;85.87;101716.13;5133585;27;8903;-71
2022/01/26 02:15:29;;;;;;;;;47.00;44.50;;;;;-5.44;85.64;101719.91;5134877;27;8833;-71
2022/01/26 02:52:09;;;;;;;;;49.00;44.00;;;;;-5.23;85.45;101689.25;5153803;27;9554;-71
2022/01/26 02:55:22;;;;;;;;;38.75;33.25;;;;;-5.19;85.59;101689.69;5153132;27;8805;-71
2022/01/26 03:07:18;;;;;;;;;43.50;38.50;;;;;-5.28;86.43;101696.31;5133961;27;8819;-71
2022/01/26 03:10:22;;;;;;;;;47.50;42.50;;;;;-5.29;86.20;101684.69;5132817;27;8827;-72
2022/01/26 03:13:23;;;;;;;;;40.25;38.75;;;;;-5.25;86.97;101694.03;5133466;27;8815;-71
2022/01/26 03:15:56;;;;;;;;;35.50;34.75;;;;;-5.21;86.81;101694.47;5134070;27;8850;-71
2022/01/26 03:18:59;;;;;;;;;50.25;45.25;;;;;-5.23;86.65;101688.44;5132623;27;8831;-72
2022/01/26 03:28:21;;;;;;;;;53.25;47.00;;;;;-5.14;86.52;101687.22;5132663;27;8836;-71
2022/01/26 03:34:11;;;;;;;;;14.00;14.00;;;;;-5.03;86.29;101671.28;5152349;27;8825;-71
2022/01/26 03:37:08;;;;;;;;;49.50;42.50;;;;;-4.99;85.62;101673.56;5139038;27;9480;-71
2022/01/26 03:40:12;;;;;;;;;42.50;39.00;;;;;-5.11;85.47;101676.03;5139487;27;8847;-72
2022/01/26 03:43:08;;;;;;;;;35.75;35.50;;;;;-5.05;84.91;101675.22;5141390;27;8835;-71
2022/01/26 03:46:04;;;;;;;;;46.50;43.75;;;;;-5.07;85.20;101671.88;5132704;27;8823;-72
2022/01/26 03:48:59;;;;;;;;;38.00;37.50;;;;;-5.09;85.52;101671.25;5135299;27;8856;-71
2022/01/26 03:51:55;;;;;;;;;38.75;37.25;;;;;-4.97;85.48;101671.50;5126902;27;8827;-71
2022/01/26 03:54:50;;;;;;;;;49.25;45.75;;;;;-5.00;84.66;101661.94;5136338;27;8819;-72
2022/01/26 03:57:46;;;;;;;;;55.00;46.00;;;;;-5.04;85.70;101674.19;5136095;27;8815;-72
2022/01/26 04:00:41;;;;;;;;;53.75;45.50;;;;;-5.08;85.32;101671.03;5136083;27;9668;-71
2022/01/26 04:03:37;;;;;;;;;56.00;47.00;;;;;-5.03;84.91;101673.16;5137127;27;8853;-71
2022/01/26 04:06:34;;;;;;;;;56.75;47.50;;;;;-4.99;85.17;101662.75;5148076;27;8829;-71
2022/01/26 04:09:10;;;;;;;;;50.00;42.50;;;;;-5.11;84.90;101665.25;5157646;27;8825;-71
2022/01/26 04:12:06;;;;;;;;;40.25;33.50;;;;;-5.08;85.62;101656.72;5142761;27;8840;-71
2022/01/26 04:15:10;;;;;;;;;53.50;45.25;;;;;-5.05;85.25;101659.88;5142096;27;8902;-71
2022/01/26 04:17:38;;;;;;;;;38.50;36.25;;;;;-5.14;85.10;101666.47;5118843;27;8934;-71
2022/01/26 04:20:39;;;;;;;;;44.00;41.50;;;;;-5.25;85.66;101663.53;5136240;27;9008;-71
2022/01/26 04:26:08;;;;;;;;;44.75;41.50;;;;;-5.12;86.05;101655.50;5135473;27;8819;-71
2022/01/26 04:29:09;;;;;;;;;46.50;42.50;;;;;-5.22;85.32;101663.94;5139324;27;8805;-71
2022/01/26 04:32:07;;;;;;;;;41.00;41.00;;;;;-5.45;87.25;101652.66;5156091;27;8853;-72
2022/01/26 04:35:03;;;;;;;;;49.50;45.25;;;;;-5.29;87.29;101657.72;5152668;27;8813;-71
2022/01/26 04:44:06;;;;;;;;;42.25;37.00;;;;;-5.02;86.11;101650.53;5135192;27;8860;-71
2022/01/26 04:47:02;;;;;;;;;33.75;32.00;;;;;-5.01;85.80;101652.19;5129776;27;9556;-71
2022/01/26 04:49:58;;;;;;;;;43.50;41.25;;;;;-5.07;85.20;101667.31;5121243;27;8923;-71
2022/01/26 04:52:34;;;;;;;;;47.50;43.75;;;;;-5.05;85.16;101662.56;5119543;27;8831;-71
2022/01/26 04:55:30;;;;;;;;;39.75;32.00;;;;;-5.11;86.16;101655.28;5138948;27;8826;-71
2022/01/26 04:58:25;;;;;;;;;40.25;39.00;;;;;-5.09;86.47;101652.38;5121083;27;8915;-70
2022/01/26 05:01:21;;;;;;;;;57.25;46.50;;;;;-5.05;86.16;101656.34;5150094;27;8833;-71
2022/01/26 05:04:17;;;;;;;;;47.00;43.00;;;;;-4.97;86.04;101652.63;5155629;27;8817;-71
2022/01/26 05:06:44;;;;;;;;;57.25;49.00;;;;;-5.06;85.86;101641.16;5156556;27;8820;-71
2022/01/26 05:09:12;;;;;;;;;34.50;34.25;;;;;-4.96;85.88;101646.19;5156617;27;8844;-71
2022/01/26 05:11:42;;;;;;;;;45.25;42.50;;;;;-4.98;86.07;101638.31;5138055;27;8849;-71
2022/01/26 05:14:10;;;;;;;;;50.00;46.75;;;;;-4.93;86.00;101646.59;5156483;27;8828;-71
2022/01/26 05:17:06;;;;;;;;;43.75;38.75;;;;;-4.99;85.66;101652.81;5134286;27;8809;-71
2022/01/26 05:20:02;;;;;;;;;45.75;42.25;;;;;-4.88;85.12;101646.00;5153396;27;8836;-71
2022/01/26 05:22:58;;;;;;;;;45.25;44.00;;;;;-4.92;85.42;101650.13;5153140;27;8836;-71
2022/01/26 05:25:26;;;;;;;;;45.00;42.50;;;;;-5.00;84.97;101640.34;5138262;27;8833;-71
2022/01/26 05:27:54;;;;;;;;;42.50;41.25;;;;;-4.96;85.22;101649.72;5151420;27;8843;-71
2022/01/26 05:30:49;;;;;;;;;45.25;43.50;;;;;-4.92;85.62;101648.25;5155035;27;8855;-70
2022/01/26 05:34:07;;;;;;;;;47.00;45.00;;;;;-4.97;85.47;101645.34;5123380;27;8823;-72
2022/01/26 05:37:03;;;;;;;;;50.25;43.25;;;;;-4.95;85.48;101653.25;5120163;27;8919;-71
2022/01/26 05:39:59;;;;;;;;;41.00;38.75;;;;;-4.90;85.54;101645.38;5148638;27;8935;-72
2022/01/26 05:42:27;;;;;;;;;40.00;37.25;;;;;-4.94;85.85;101652.19;5154979;27;9037;-70
2022/01/26 05:45:35;;;;;;;;;55.25;46.50;;;;;-4.86;85.67;101646.59;5154398;27;8833;-69
2022/01/26 05:48:31;;;;;;;;;47.50;45.50;;;;;-4.70;84.69;101654.31;5154294;27;8833;-69
2022/01/26 05:51:31;;;;;;;;;32.25;32.25;;;;;-4.73;84.91;101656.59;5155162;27;8972;-69
2022/01/26 05:53:59;;;;;;;;;54.50;49.50;;;;;-4.71;84.90;101655.34;5155795;27;8837;-69
2022/01/26 05:56:27;;;;;;;;;49.75;45.00;;;;;-4.55;84.59;101654.09;5137349;27;8825;-69
2022/01/26 05:58:55;;;;;;;;;45.75;40.25;;;;;-4.54;84.57;101656.59;5155798;27;8859;-69
2022/01/26 06:01:22;;;;;;;;;43.25;35.75;;;;;-4.52;83.73;101651.00;5137600;27;8833;-68
2022/01/26 06:03:51;;;;;;;;;44.25;42.75;;;;;-4.41;83.34;101649.53;5155518;27;8862;-68
2022/01/26 06:06:18;;;;;;;;;58.25;45.75;;;;;-4.35;83.15;101654.94;5155491;27;8909;-68
2022/01/26 06:08:46;;;;;;;;;50.00;46.00;;;;;-4.43;83.57;101638.94;5155555;27;9028;-68
2022/01/26 06:11:13;;;;;;;;;56.25;49.50;;;;;-4.32;83.80;101646.41;5155051;27;8871;-68
2022/01/26 06:13:42;;;;;;;;;52.50;48.00;;;;;-4.29;83.89;101645.19;5155375;27;8898;-68
2022/01/26 06:16:10;;;;;;;;;53.75;46.50;;;;;-4.26;83.49;101642.03;5155478;27;9000;-68
2022/01/26 06:18:38;;;;;;;;;55.00;49.25;;;;;-4.22;83.15;101641.44;5155361;27;8825;-68
2022/01/26 06:21:07;;;;;;;;;45.75;43.75;;;;;-4.11;82.44;101641.81;5136709;27;9024;-69
2022/01/26 06:23:35;;;;;;;;;5.75;5.75;;;;;-4.15;81.52;101632.47;5136777;27;8853;-69
2022/01/26 06:26:02;;;;;;;;;35.75;34.50;;;;;-4.20;81.61;101642.03;5155202;27;8829;-69
2022/01/26 06:28:30;;;;;;;;;59.00;49.00;;;;;-4.12;81.06;101632.06;5154895;27;8857;-69
2022/01/26 06:31:03;;;;;;;;;48.50;44.00;;;;;-4.22;80.96;101632.47;5155172;27;8828;-69
2022/01/26 06:33:33;;;;;;;;;51.75;41.50;;;;;-4.02;82.02;101638.69;5154879;27;8847;-69
2022/01/26 06:36:03;;;;;;;;;41.25;40.25;;;;;-4.06;81.32;101628.53;5136862;27;8836;-69
2022/01/26 06:38:32;;;;;;;;;52.25;48.25;;;;;-3.99;82.05;101626.59;5154610;27;8860;-69
2022/01/26 06:41:00;;;;;;;;;54.75;47.75;;;;;-3.99;82.27;101632.88;5154726;27;9651;-69
2022/01/26 06:43:31;;;;;;;;;54.50;48.25;;;;;-3.97;82.35;101617.25;5154526;27;8860;-69
2022/01/26 06:46:05;;;;;;;;;45.00;42.00;;;;;-3.77;82.99;101625.28;5155089;27;8943;-69
2022/01/26 06:51:13;;;;;;;;;53.50;48.00;;;;;-3.81;82.68;101618.66;5154969;27;8833;-69
2022/01/26 06:53:40;;;;;;;;;43.00;41.00;;;;;-3.64;82.15;101622.53;5154952;27;8939;-69
2022/01/26 06:56:08;;;;;;;;;45.75;40.50;;;;;-3.68;82.44;101624.03;5154772;27;8905;-69
2022/01/26 06:58:36;;;;;;;;;44.00;41.25;;;;;-3.58;81.29;101611.94;5154345;27;8809;-69
2022/01/26 07:01:04;;;;;;;;;50.75;45.75;;;;;-3.64;80.60;101619.00;5154613;27;8841;-69
2022/01/26 07:03:32;;;;;;;;;51.50;44.50;;;;;-3.60;80.90;101616.69;5154512;27;8852;-69
2022/01/26 07:06:00;;;;;;;;;50.00;46.50;;;;;-3.78;80.55;101626.34;5154830;27;8868;-69
2022/01/26 07:08:29;;;;;;;;;45.75;41.00;;;;;-3.69;80.74;101616.13;5119249;27;9025;-69
2022/01/26 07:10:59;;;;;;;;;47.25;45.25;;;;;-3.83;80.63;101618.06;5155139;27;8820;-69
2022/01/26 07:13:27;;;;;;;;;46.50;45.25;;;;;-3.79;81.44;101615.75;5137281;27;8841;-69
2022/01/26 07:21:55;;;;;;;;;44.00;43.25;;;;;-3.69;81.07;101625.06;5136190;27;8865;-67
2022/01/26 07:24:52;;;;;;;;;36.00;35.00;;;;;-3.79;81.19;101630.09;5133272;27;8852;-67
2022/01/26 07:27:20;;;;;;;;;37.50;34.25;;;;;-3.88;81.44;101620.56;5158029;27;8829;-66
2022/01/26 07:30:15;;;;;;;;;29.75;29.75;;;;;-4.14;81.75;101626.00;5138675;27;8872;-67
2022/01/26 07:33:12;;;;;;;;;44.25;42.50;;;;;-4.04;82.47;101616.44;5144904;27;8860;-66
2022/01/26 07:36:08;;;;;;;;;33.25;33.00;;;;;-3.81;82.72;101625.94;5143193;27;8839;-68
2022/01/26 07:38:37;;;;;;;;;47.25;44.00;;;;;-3.76;82.76;101613.44;5129588;27;8836;-68
2022/01/26 07:41:33;;;;;;;;;38.00;37.50;;;;;-3.74;81.57;101614.06;5141838;27;8829;-68
2022/01/26 07:44:29;;;;;;;;;62.00;53.00;;;;;-3.92;81.71;101608.50;5144366;27;8823;-69
2022/01/26 07:47:25;;;;;;;;;50.25;48.25;;;;;-3.92;81.10;101616.59;5144094;27;8858;-68
2022/01/26 07:50:21;;;;;;;;;49.75;43.00;;;;;-3.85;81.89;101625.53;5142228;27;8835;-68
2022/01/26 07:53:03;;;;;;;;;45.75;44.50;;;;;-3.75;80.72;101625.09;5145321;27;8841;-67
2022/01/26 07:55:32;;;;;;;;;41.75;40.25;;;;;-3.73;80.69;101623.00;5151878;27;8833;-68
2022/01/26 07:58:28;;;;;;;;;46.00;45.00;;;;;-3.58;80.49;101626.28;5139124;27;8833;-68
2022/01/26 08:01:23;;;;;;;;;44.75;41.00;;;;;-3.72;80.38;101622.78;5136051;27;8823;-68
2022/01/26 08:03:52;;;;;;;;;39.50;37.25;;;;;-3.70;80.87;101625.28;5123088;27;8860;-68
2022/01/26 08:06:20;;;;;;;;;41.50;34.50;;;;;-3.63;80.27;101618.78;5156869;27;8865;-68
2022/01/26 08:09:16;;;;;;;;;39.00;38.50;;;;;-3.70;79.59;101626.09;5156578;27;8940;-68
2022/01/26 08:12:17;;;;;;;;;38.50;38.50;;;;;-3.74;80.36;101622.19;5122563;27;8839;-68
2022/01/26 08:15:14;;;;;;;;;41.00;41.00;;;;;-3.68;79.93;101623.19;5151378;27;8845;-69
2022/01/26 08:17:55;;;;;;;;;43.75;39.75;;;;;-3.85;80.33;101617.41;5125923;27;8823;-68
2022/01/26 08:20:51;;;;;;;;;34.00;31.00;;;;;-3.72;81.30;101605.75;5121899;27;8859;-68
2022/01/26 08:23:48;;;;;;;;;40.25;37.00;;;;;-3.56;80.59;101604.41;5122276;27;8842;-67
2022/01/26 08:26:22;;;;;;;;;40.50;40.25;;;;;-3.50;78.93;101611.69;5147195;27;8831;-67
2022/01/26 08:29:24;;;;;;;;;39.67;37.33;;;;;-3.19;79.29;101606.31;5155500;27;8852;-68
2022/01/26 08:32:19;;;;;;;;;45.67;38.33;;;;;-3.19;78.90;101602.78;5155988;27;8840;-68
2022/01/26 08:35:15;;;;;;;;;33.67;33.00;;;;;-3.06;79.25;101591.03;5125799;27;8823;-67
2022/01/26 08:38:05;;;;;;;;;36.33;36.33;;;;;-2.98;79.15;101597.03;5154958;27;8876;-68
2022/01/26 08:41:00;;;;;;;;;37.00;36.00;;;;;-3.10;78.23;101601.47;5155621;27;8839;-68
2022/01/26 08:43:56;;;;;;;;;36.67;34.33;;;;;-2.99;78.53;101599.91;5153992;27;9581;-68
2022/01/26 08:46:52;;;;;;;;;30.33;29.00;;;;;-3.11;78.80;101597.94;5155702;27;8825;-68
2022/01/26 08:49:47;;;;;;;;;40.00;36.33;;;;;-3.06;80.15;101591.03;5142240;27;8823;-68
2022/01/26 08:52:43;;;;;;;;;43.33;37.00;;;;;-2.95;79.93;101598.44;5135512;27;8850;-68
2022/01/26 08:55:39;;;;;;;;;78.00;63.25;;;;;-3.08;79.60;101596.66;5129054;27;8813;-68
2022/01/26 08:58:07;;;;;;;;;43.25;38.50;;;;;-3.12;80.27;101593.56;5136004;27;8839;-68
2022/01/26 09:00:48;;;;;;;;;35.75;35.25;;;;;-3.01;79.68;101594.72;5118442;27;8859;-68
2022/01/26 09:03:43;;;;;;;;;40.25;37.50;;;;;-3.11;79.66;101592.53;5135530;27;8831;-67
2022/01/26 09:06:32;;;;;;;;;33.50;31.00;;;;;-3.16;80.70;101588.78;5147378;27;8966;-69
2022/01/26 09:09:40;;;;;;;;;58.50;51.50;;;;;-2.90;78.66;101594.03;5142640;27;8831;-67
2022/01/26 09:12:16;;;;;;;;;17.67;16.67;;;;;-2.93;78.43;101582.81;5135801;27;8853;-68
2022/01/26 09:15:13;;;;;;;;;45.33;43.00;;;;;-2.86;78.36;101586.28;5152711;27;8927;-68
2022/01/26 09:17:43;;;;;;;;;27.33;20.33;;;;;-2.81;77.34;101581.88;5138739;27;8835;-67
2022/01/26 09:20:11;;;;;;;;;29.67;28.67;;;;;-2.85;76.92;101577.13;5142471;27;9000;-68
2022/01/26 09:23:07;;;;;;;;;23.67;23.67;;;;;-2.90;77.83;101576.97;5133700;27;8907;-67
2022/01/26 09:25:35;;;;;;;;;34.33;34.33;;;;;-2.80;77.95;101578.13;5124037;27;8920;-68
2022/01/26 09:28:31;;;;;;;;;24.33;20.33;;;;;-3.06;76.08;101575.63;5154480;27;8979;-68
2022/01/26 09:31:26;;;;;;;;;19.33;19.33;;;;;-3.16;76.14;101573.38;5123434;27;8897;-68
2022/01/26 09:34:08;;;;;;;;;16.67;14.33;;;;;-3.05;76.21;101569.16;5136687;27;8825;-67
2022/01/26 09:36:37;;;;;;;;;21.33;19.00;;;;;-3.04;75.91;101567.28;5153070;27;8905;-67
2022/01/26 09:39:13;;;;;;;;;26.67;24.67;;;;;-2.99;75.50;101562.03;5133802;27;8847;-68
2022/01/26 09:42:10;;;;;;;;;30.67;28.33;;;;;-2.73;74.60;101556.41;5134616;27;8923;-68
2022/01/26 09:45:07;;;;;;;;;23.33;21.33;;;;;-2.70;73.18;101564.09;5134896;27;8827;-69
2022/01/26 09:48:04;;;;;;;;;21.67;21.33;;;;;-3.24;75.23;101556.59;5133064;27;8839;-69
2022/01/26 09:51:00;;;;;;;;;14.33;14.33;;;;;-3.33;75.30;101549.78;5119921;27;8803;-69
2022/01/26 09:54:04;;;;;;;;;17.33;14.33;;;;;-3.41;75.78;101548.16;5121023;27;8819;-69
2022/01/26 09:57:04;;;;;;;;;15.67;15.67;;;;;-3.12;75.42;101550.28;5133633;27;8903;-69
2022/01/26 10:00:00;;;;;;;;;15.00;12.67;;;;;-3.06;74.46;101545.88;5120018;27;8933;-69
2022/01/26 10:03:03;;;;;;;;;15.67;15.67;;;;;-3.12;74.29;101544.03;5133543;27;8819;-68
2022/01/26 10:05:59;;;;;;;;;15.00;13.00;;;;;-2.96;72.80;101539.94;5133671;27;8838;-69
2022/01/26 10:09:25;;;;;;;;;14.33;14.33;;;;;-3.04;73.25;101551.06;5133207;27;8815;-69
2022/01/26 10:17:29;;;;;;;;;12.67;11.67;;;;;-3.43;73.89;101534.88;5134401;27;8950;-69
2022/01/26 10:19:59;;;;;;;;;13.33;12.67;;;;;-3.13;73.35;101539.66;5116609;27;8899;-68
2022/01/26 10:22:30;;;;;;;;;15.33;15.33;;;;;-3.49;73.78;101537.63;5134608;27;8858;-68
2022/01/26 10:25:14;;;;;;;;;14.00;14.00;;;;;-3.42;73.78;101539.22;5116077;27;8843;-69
2022/01/26 10:28:02;;;;;;;;;13.33;13.33;;;;;-3.13;73.83;101537.78;5134427;27;8918;-69
2022/01/26 10:30:29;;;;;;;;;13.00;13.00;;;;;-3.13;73.47;101535.09;5116516;27;8843;-69
2022/01/26 10:32:57;;;;;;;;;11.00;9.67;;;;;-2.98;72.97;101539.34;5134207;27;8827;-70
2022/01/26 10:35:25;;;;;;;;;7.33;7.33;;;;;-3.04;72.62;101532.94;5116185;27;8948;-69
2022/01/26 10:37:55;;;;;;;;;11.33;11.33;;;;;-3.03;72.81;101540.00;5116244;27;8869;-70
2022/01/26 10:40:27;;;;;;;;;9.00;9.00;;;;;-3.07;73.26;101530.66;5134147;27;9023;-70
2022/01/26 10:43:20;;;;;;;;;20.67;18.33;;;;;-3.03;73.19;101531.06;5134022;27;8827;-69
2022/01/26 10:46:03;;;;;;;;;15.67;15.67;;;;;-3.00;73.14;101527.91;5130585;27;8954;-70
2022/01/26 10:48:55;;;;;;;;;13.00;10.67;;;;;-3.11;72.72;101515.91;5135197;27;8865;-73
2022/01/26 10:51:59;;;;;;;;;18.67;18.67;;;;;-3.14;73.30;101524.50;5145335;27;8963;-73
2022/01/26 10:54:55;;;;;;;;;10.67;10.67;;;;;-3.06;72.83;101528.81;5140709;27;8819;-73
2022/01/26 10:57:51;;;;;;;;;7.00;7.00;;;;;-3.05;73.01;101525.03;5144005;27;8829;-73
2022/01/26 11:00:47;;;;;;;;;19.00;19.00;;;;;-3.10;73.54;101528.41;5139368;27;8863;-72
2022/01/26 11:03:43;;;;;;;;;15.33;15.33;;;;;-3.15;74.00;101520.94;5143284;27;8852;-72
2022/01/26 11:06:18;;;;;;;;;12.00;12.00;;;;;-3.01;72.82;101521.66;5157737;27;8829;-72
2022/01/26 11:08:49;;;;;;;;;19.33;18.33;;;;;-3.16;73.53;101524.69;5152274;27;8839;-72
2022/01/26 11:11:46;;;;;;;;;18.00;16.67;;;;;-3.26;74.08;101528.94;5136147;27;8825;-72
2022/01/26 11:14:21;;;;;;;;;15.33;15.33;;;;;-3.14;73.84;101519.91;5149453;27;8950;-72
2022/01/26 11:16:59;;;;;;;;;19.00;16.67;;;;;-3.17;73.77;101511.38;5120166;27;8881;-72
2022/01/26 11:19:46;;;;;;;;;12.00;11.33;;;;;-3.13;73.82;101513.44;5136556;27;9584;-73
2022/01/26 11:22:57;;;;;;;;;18.33;16.00;;;;;-3.21;74.02;101508.28;5136736;27;8862;-73
2022/01/26 11:25:52;;;;;;;;;14.33;14.33;;;;;-3.18;74.31;101513.25;5137768;27;8843;-72
2022/01/26 11:28:22;;;;;;;;;18.33;18.33;;;;;-3.28;74.85;101503.97;5147866;27;8819;-72
2022/01/26 11:30:53;;;;;;;;;17.33;12.33;;;;;-3.28;74.37;101499.41;5158562;27;8949;-72
2022/01/26 11:33:37;;;;;;;;;21.67;18.67;;;;;-3.43;74.76;101496.19;5140908;27;8854;-71
2022/01/26 11:36:05;;;;;;;;;18.00;18.00;;;;;-3.46;75.86;101496.59;5136225;27;8954;-71
2022/01/26 11:45:21;;;;;;;;;18.33;18.00;;;;;-3.22;75.74;101490.41;5153133;27;8871;-72
2022/01/26 11:48:01;;;;;;;;;12.33;12.33;;;;;-3.30;75.45;101487.13;5138463;27;8946;-72
2022/01/26 11:50:43;;;;;;;;;14.33;14.33;;;;;-3.34;75.63;101485.91;5139348;27;9624;-72
2022/01/26 11:53:27;;;;;;;;;21.00;21.00;;;;;-3.32;75.55;101487.34;5133884;27;8821;-72
2022/01/26 11:56:05;;;;;;;;;15.00;15.00;;;;;-3.41;76.11;101484.09;5145523;27;8927;-72
2022/01/26 11:58:46;;;;;;;;;13.00;13.00;;;;;-3.40;75.89;101480.31;5119655;27;8859;-71
2022/01/26 12:01:43;;;;;;;;;9.33;9.33;;;;;-3.40;75.71;101476.78;5125936;27;8817;-72
2022/01/26 12:04:38;;;;;;;;;14.33;14.33;;;;;-3.41;76.07;101477.84;5147777;27;8843;-71
2022/01/26 12:07:24;;;;;;;;;27.67;27.33;;;;;-3.39;77.63;101470.34;5146963;27;8831;-71
2022/01/26 12:09:52;;;;;;;;;15.00;15.00;;;;;-3.42;76.74;101470.78;5116083;27;8958;-71
2022/01/26 12:12:58;;;;;;;;;17.00;14.33;;;;;-3.36;75.84;101472.63;5146181;27;8940;-71
2022/01/26 12:15:58;;;;;;;;;12.00;12.00;;;;;-3.47;76.24;101468.72;5132673;27;9560;-71
2022/01/26 12:36:14;;;;;;;;;13.67;13.67;;;;;-3.18;75.55;101459.16;5136911;27;8850;-70
2022/01/26 12:39:14;;;;;;;;;9.33;9.33;;;;;-3.45;75.73;101460.38;5137448;27;8933;-71
2022/01/26 12:41:51;;;;;;;;;13.00;13.00;;;;;-3.38;75.61;101458.47;5156942;27;8997;-70
2022/01/26 12:44:19;;;;;;;;;13.67;13.67;;;;;-3.35;75.30;101460.75;5156980;27;8841;-71
2022/01/26 12:46:48;;;;;;;;;13.00;13.00;;;;;-3.32;75.83;101459.47;5156762;27;8825;-71
2022/01/26 12:49:19;;;;;;;;;16.00;16.00;;;;;-3.36;75.40;101459.91;5138508;27;9615;-70
2022/01/26 12:51:51;;;;;;;;;12.00;12.00;;;;;-3.28;75.81;101452.59;5156969;27;8837;-70
2022/01/26 12:54:20;;;;;;;;;21.67;21.67;;;;;-3.33;76.08;101457.81;5156902;27;8833;-71
2022/01/26 12:56:48;;;;;;;;;19.33;19.33;;;;;-3.40;75.73;101452.47;5154091;27;8855;-71
2022/01/26 12:59:20;;;;;;;;;13.67;11.33;;;;;-3.57;76.41;101452.16;5151018;27;8841;-71
2022/01/26 13:02:02;;;;;;;;;14.00;12.33;;;;;-3.38;76.10;101453.88;5154787;27;8930;-70
2022/01/26 13:05:02;;;;;;;;;9.67;9.00;;;;;-3.19;75.17;101460.19;5141581;27;9569;-70
2022/01/26 13:07:30;;;;;;;;;15.00;15.00;;;;;-3.27;75.22;101459.66;5136746;27;8823;-70
2022/01/26 13:09:59;;;;;;;;;14.33;14.33;;;;;-3.52;76.53;101454.22;5117779;27;8869;-71
2022/01/26 13:12:33;;;;;;;;;7.67;7.67;;;;;-3.53;75.89;101457.94;5118426;27;8857;-70
2022/01/26 13:15:39;;;;;;;;;18.67;16.67;;;;;-3.79;77.12;101462.50;5120681;27;8831;-71
2022/01/26 13:18:18;;;;;;;;;15.67;15.67;;;;;-3.67;77.12;101458.06;5124497;27;8821;-70
2022/01/26 13:21:45;;;;;;;;;11.33;11.33;;;;;-3.48;77.17;101466.25;5155069;27;8954;-71
2022/01/26 13:41:38;;;;;;;;;15.00;14.33;;;;;-3.45;76.59;101473.91;5146403;27;8857;-70
2022/01/26 13:51:33;;;;;;;;;15.33;15.33;;;;;-3.53;76.08;101485.00;5142427;27;8830;-71
2022/01/26 13:53:59;;;;;;;;;13.33;13.33;;;;;-3.85;77.75;101482.28;5133656;27;8839;-71
2022/01/26 14:02:15;;;;;;;;;10.67;10.67;;;;;-3.52;77.58;101492.91;5137273;27;8891;-71
2022/01/26 14:05:12;;;;;;;;;17.33;15.67;;;;;-3.56;77.36;101490.84;5136362;27;8865;-71
2022/01/26 14:08:09;;;;;;;;;17.33;13.00;;;;;-3.64;77.99;101486.53;5136553;27;8839;-70
2022/01/26 14:10:37;;;;;;;;;21.67;18.67;;;;;-3.67;78.20;101495.91;5152026;27;8849;-71
2022/01/26 14:13:05;;;;;;;;;21.00;17.33;;;;;-3.70;78.66;101490.91;5155166;27;8876;-71
2022/01/26 14:15:45;;;;;;;;;16.67;16.00;;;;;-3.75;78.61;101498.88;5125449;27;8909;-71
2022/01/26 14:21:29;;;;;;;;;17.33;17.33;;;;;-3.70;79.21;101498.22;5151391;27;8849;-71
2022/01/26 14:24:24;;;;;;;;;22.00;21.33;;;;;-3.82;79.78;101497.25;5148773;27;8931;-70
2022/01/26 14:26:56;;;;;;;;;14.33;14.33;;;;;-3.81;80.17;101493.50;5154948;27;8880;-71
2022/01/26 14:29:35;;;;;;;;;15.00;15.00;;;;;-3.83;80.17;101495.56;5132982;27;8893;-72
2022/01/26 15:11:03;;;;;;;;;20.00;18.33;;;;;-3.95;81.29;101500.84;5148196;27;9704;-71
2022/01/26 16:05:58;;;;;;;;;18.67;18.33;;;;;-4.31;84.62;101525.69;5135863;27;8831;-72
2022/01/26 16:38:15;;;;;;;;;21.00;20.00;;;;;-4.36;84.68;101539.84;5135424;27;8869;-70
2022/01/26 17:43:14;;;;;;;;;30.75;25.50;;;;;-4.36;85.56;101547.13;5146403;27;8840;-70
2022/01/26 18:04:11;;;;;;;;;32.50;30.00;;;;;-4.21;83.98;101572.03;5144143;27;8923;-71
2022/01/26 18:14:33;;;;;;;;;20.75;19.50;;;;;-4.23;84.43;101576.78;5138847;27;8823;-71
2022/01/26 18:32:22;;;;;;;;;26.25;26.25;;;;;-4.26;84.46;101564.53;5147772;27;8872;-70
2022/01/26 18:51:29;;;;;;;;;31.50;30.00;;;;;-4.27;84.85;101562.88;5134117;27;8839;-71
2022/01/26 18:54:38;;;;;;;;;34.50;32.50;;;;;-4.25;84.61;101565.38;5133204;27;9575;-70
2022/01/26 18:57:34;;;;;;;;;24.50;21.75;;;;;-4.26;84.58;101561.84;5133306;27;8843;-70
2022/01/26 19:00:30;;;;;;;;;35.00;35.00;;;;;-4.22;85.05;101562.22;5133696;27;8958;-70
2022/01/26 19:03:25;;;;;;;;;26.50;26.50;;;;;-4.29;85.33;101558.75;5119283;27;8831;-70
2022/01/26 19:06:21;;;;;;;;;33.25;27.50;;;;;-4.29;85.30;101554.19;5128770;27;8835;-71
2022/01/26 19:08:50;;;;;;;;;32.75;32.00;;;;;-4.36;85.32;101558.75;5147103;27;8833;-71
2022/01/26 19:11:22;;;;;;;;;32.75;31.00;;;;;-4.34;85.54;101563.94;5150712;27;8825;-71
2022/01/26 19:14:21;;;;;;;;;36.50;34.25;;;;;-4.27;86.00;101562.88;5144604;27;9589;-70
2022/01/26 19:17:28;;;;;;;;;34.25;34.25;;;;;-4.20;85.42;101555.59;5119279;27;8811;-70
2022/01/26 19:23:40;;;;;;;;;47.50;42.00;;;;;-4.23;85.72;101569.50;5137229;27;8823;-70